createdAt,value
2022-10-13T00:00:39.781Z,13.93
2022-10-13T00:03:08.861Z,14.82
2022-10-13T00:05:36.550Z,14.57
2022-10-13T00:08:04.201Z,14.77
2022-10-13T00:10:31.938Z,17.23
2022-10-13T00:12:59.542Z,15.85
2022-10-13T00:15:27.204Z,15.05
2022-10-13T00:17:54.846Z,16.67
2022-10-13T00:20:23.987Z,13.10
2022-10-13T00:22:51.709Z,15.13
2022-10-13T00:25:19.340Z,12.57
2022-10-13T00:27:46.963Z,14.20
2022-10-13T00:30:15.030Z,17.40
2022-10-13T00:32:42.636Z,18.42
2022-10-13T00:35:10.566Z,13.85
2022-10-13T00:40:08.558Z,16.98
2022-10-13T00:42:36.238Z,13.15
2022-10-13T00:45:07.925Z,15.65
2022-10-13T00:47:39.746Z,14.93
2022-10-13T00:50:11.333Z,15.10
2022-10-13T00:52:42.345Z,15.70
2022-10-13T00:55:12.838Z,14.98
2022-10-13T00:57:43.573Z,15.18
2022-10-13T01:00:12.830Z,13.13
2022-10-13T01:02:40.481Z,14.43
2022-10-13T01:05:08.958Z,15.40
2022-10-13T01:07:37.213Z,18.60
2022-10-13T01:10:07.127Z,13.60
2022-10-13T01:12:45.673Z,13.13
2022-10-13T01:15:18.373Z,15.18
2022-10-13T01:17:57.214Z,14.43
2022-10-13T01:20:56.430Z,11.60
2022-10-13T01:23:57.255Z,15.07
2022-10-13T01:27:05.385Z,13.95
2022-10-13T01:29:55.713Z,14.55
2022-10-13T01:32:30.860Z,16.25
2022-10-13T01:35:06.924Z,16.83
2022-10-13T01:37:44.745Z,17.80
2022-10-13T01:40:19.741Z,16.13
2022-10-13T01:42:54.607Z,17.85
2022-10-13T01:45:29.739Z,15.73
2022-10-13T01:47:59.457Z,17.00
2022-10-13T01:50:27.626Z,18.33
2022-10-13T01:52:56.649Z,20.08
2022-10-13T01:55:24.372Z,16.02
2022-10-13T01:57:51.991Z,16.00
2022-10-13T02:00:22.281Z,17.38
2022-10-13T02:03:05.801Z,15.50
2022-10-13T02:05:49.046Z,16.52
2022-10-13T02:08:25.771Z,16.33
2022-10-13T02:11:00.010Z,18.17
2022-10-13T02:13:30.462Z,16.10
2022-10-13T02:16:01.984Z,15.10
2022-10-13T02:18:34.131Z,13.20
2022-10-13T02:21:03.440Z,17.80
2022-10-13T02:23:31.351Z,17.73
2022-10-13T02:26:00.513Z,16.20
2022-10-13T02:28:29.267Z,13.27
2022-10-13T02:30:57.081Z,18.70
2022-10-13T02:33:24.797Z,15.00
2022-10-13T02:35:53.788Z,17.05
2022-10-13T02:38:21.479Z,18.33
2022-10-13T02:40:49.345Z,15.02
2022-10-13T02:43:17.037Z,18.48
2022-10-13T02:45:44.621Z,15.90
2022-10-13T02:48:12.269Z,14.80
2022-10-13T02:50:39.940Z,15.80
2022-10-13T02:53:08.900Z,13.23
2022-10-13T02:55:36.525Z,13.98
2022-10-13T02:58:04.180Z,18.05
2022-10-13T03:00:31.831Z,15.55
2022-10-13T03:02:59.857Z,15.23
2022-10-13T03:07:54.966Z,19.90
2022-10-13T03:10:24.137Z,15.30
2022-10-13T03:12:51.801Z,14.35
2022-10-13T03:15:19.404Z,15.18
2022-10-13T03:17:47.025Z,18.48
2022-10-13T03:20:14.652Z,15.68
2022-10-13T03:22:46.018Z,16.65
2022-10-13T03:25:16.456Z,17.20
2022-10-13T03:27:45.441Z,16.98
2022-10-13T03:30:13.566Z,17.23
2022-10-13T03:32:41.634Z,15.95
2022-10-13T03:35:09.939Z,17.63
2022-10-13T03:37:37.570Z,18.15
2022-10-13T03:40:06.533Z,17.85
2022-10-13T03:42:36.539Z,18.88
2022-10-13T03:45:06.368Z,16.08
2022-10-13T03:47:36.030Z,15.02
2022-10-13T03:50:04.008Z,13.73
2022-10-13T03:54:59.093Z,18.45
2022-10-13T03:57:26.783Z,13.98
2022-10-13T03:59:56.030Z,20.42
2022-10-13T04:02:25.301Z,14.65
2022-10-13T04:04:52.933Z,18.88
2022-10-13T04:07:20.660Z,19.42
2022-10-13T04:09:48.304Z,18.45
2022-10-13T04:12:19.831Z,15.23
2022-10-13T04:14:48.670Z,17.83
2022-10-13T04:17:16.303Z,20.33
2022-10-13T04:19:45.426Z,20.63
2022-10-13T04:22:13.037Z,18.25
2022-10-13T04:24:40.761Z,17.70
2022-10-13T04:27:08.410Z,19.35
2022-10-13T04:29:36.003Z,17.15
2022-10-13T04:32:03.602Z,19.52
2022-10-13T04:34:31.171Z,21.13
2022-10-13T04:37:00.166Z,18.08
2022-10-13T04:39:27.782Z,16.80
2022-10-13T04:41:55.791Z,16.63
2022-10-13T04:44:23.449Z,17.30
2022-10-13T04:46:51.060Z,16.35
2022-10-13T04:49:18.714Z,23.45
2022-10-13T04:51:46.438Z,18.02
2022-10-13T04:54:15.494Z,20.60
2022-10-13T04:56:45.290Z,18.65
2022-10-13T04:59:13.052Z,23.00
2022-10-13T05:01:40.697Z,20.92
2022-10-13T05:04:09.004Z,19.33
2022-10-13T05:06:53.400Z,18.30
2022-10-13T05:09:28.450Z,15.07
2022-10-13T05:11:56.128Z,20.15
2022-10-13T05:14:24.168Z,16.15
2022-10-13T05:16:51.888Z,17.42
2022-10-13T05:19:20.235Z,18.20
2022-10-13T05:21:47.844Z,18.48
2022-10-13T05:24:16.288Z,18.88
2022-10-13T05:26:45.249Z,18.92
2022-10-13T05:29:12.856Z,17.75
2022-10-13T05:31:41.406Z,20.13
2022-10-13T05:34:09.458Z,16.10
2022-10-13T05:36:37.067Z,21.45
2022-10-13T05:39:07.432Z,20.13
2022-10-13T05:41:35.292Z,25.30
2022-10-13T05:44:09.288Z,18.63
2022-10-13T05:46:37.490Z,19.98
2022-10-13T05:49:05.169Z,19.17
2022-10-13T05:51:36.108Z,20.73
2022-10-13T05:54:08.386Z,20.15
2022-10-13T05:56:40.029Z,21.83
2022-10-13T05:59:13.940Z,23.45
2022-10-13T06:01:43.117Z,21.42
2022-10-13T06:04:15.055Z,19.20
2022-10-13T06:06:42.669Z,18.77
2022-10-13T06:09:10.272Z,21.10
2022-10-13T06:11:37.933Z,21.63
2022-10-13T06:14:05.774Z,19.63
2022-10-13T06:16:35.550Z,19.50
2022-10-13T06:19:03.137Z,24.40
2022-10-13T06:21:30.787Z,15.85
2022-10-13T06:23:58.411Z,22.30
2022-10-13T06:26:26.036Z,16.42
2022-10-13T06:28:59.137Z,20.33
2022-10-13T06:31:27.548Z,21.55
2022-10-13T06:36:23.940Z,16.25
2022-10-13T06:38:51.778Z,26.48
2022-10-13T06:41:19.390Z,23.80
2022-10-13T06:43:47.061Z,21.55
2022-10-13T06:46:16.051Z,19.77
2022-10-13T06:48:43.711Z,23.27
2022-10-13T06:51:13.061Z,22.35
2022-10-13T06:53:40.632Z,20.77
2022-10-13T06:56:09.233Z,21.88
2022-10-13T06:58:37.365Z,26.02
2022-10-13T07:01:05.806Z,25.88
2022-10-13T07:03:33.915Z,23.85
2022-10-13T07:08:31.156Z,19.98
2022-10-13T07:10:59.083Z,24.00
2022-10-13T07:15:54.335Z,20.55
2022-10-13T07:18:21.979Z,22.42
2022-10-13T07:20:49.626Z,22.60
2022-10-13T07:23:17.234Z,24.15
2022-10-13T07:25:46.259Z,23.65
2022-10-13T07:28:14.056Z,22.95
2022-10-13T07:30:41.937Z,30.17
2022-10-13T07:33:09.609Z,25.45
2022-10-13T07:35:39.949Z,30.02
2022-10-13T07:38:07.544Z,26.33
2022-10-13T07:40:35.428Z,23.90
2022-10-13T07:45:32.171Z,25.48
2022-10-13T07:50:27.296Z,23.27
2022-10-13T07:52:54.892Z,23.40
2022-10-13T07:55:22.529Z,28.45
2022-10-13T07:57:50.166Z,25.63
2022-10-13T08:00:20.023Z,25.40
2022-10-13T08:02:51.025Z,31.25
2022-10-13T08:05:18.791Z,26.75
2022-10-13T08:07:46.535Z,28.27
2022-10-13T08:10:15.245Z,30.60
2022-10-13T08:12:42.878Z,35.03
2022-10-13T08:15:11.230Z,32.20
2022-10-13T08:17:40.279Z,27.00
2022-10-13T08:20:08.634Z,28.65
2022-10-13T08:22:36.309Z,32.67
2022-10-13T08:25:04.531Z,27.27
2022-10-13T08:27:47.890Z,31.42
2022-10-13T08:30:18.565Z,28.55
2022-10-13T08:32:47.668Z,25.83
2022-10-13T08:35:15.901Z,24.95
2022-10-13T08:37:43.838Z,27.90
2022-10-13T08:42:44.661Z,29.60
2022-10-13T08:45:40.355Z,26.02
2022-10-13T08:48:14.030Z,26.65
2022-10-13T08:50:45.286Z,27.42
2022-10-13T08:53:15.853Z,29.05
2022-10-13T08:55:46.339Z,24.45
2022-10-13T08:58:19.917Z,29.55
2022-10-13T09:00:47.629Z,27.48
2022-10-13T09:03:25.386Z,25.00
2022-10-13T09:06:07.968Z,27.63
2022-10-13T09:08:41.509Z,31.50
2022-10-13T09:11:11.580Z,26.58
2022-10-13T09:13:39.302Z,25.67
2022-10-13T09:16:08.104Z,25.05
2022-10-13T09:18:38.448Z,26.00
2022-10-13T09:21:22.937Z,25.27
2022-10-13T09:23:53.998Z,27.23
2022-10-13T09:26:24.649Z,25.58
2022-10-13T09:28:53.679Z,24.60
2022-10-13T09:31:25.942Z,24.50
2022-10-13T09:34:03.096Z,24.23
2022-10-13T09:36:31.218Z,24.08
2022-10-13T09:39:13.361Z,23.80
2022-10-13T09:41:42.848Z,20.77
2022-10-13T09:44:14.226Z,21.58
2022-10-13T09:46:49.661Z,19.92
2022-10-13T09:49:34.623Z,24.98
2022-10-13T09:52:04.788Z,19.33
2022-10-13T09:54:44.780Z,19.63
2022-10-13T09:57:19.859Z,20.27
2022-10-13T09:59:51.395Z,21.33
2022-10-13T10:02:27.445Z,19.45
2022-10-13T10:04:59.953Z,18.40
2022-10-13T10:07:32.647Z,19.92
2022-10-13T10:10:04.941Z,17.20
2022-10-13T10:12:37.276Z,18.23
2022-10-13T10:15:27.084Z,18.08
2022-10-13T10:17:59.581Z,18.83
2022-10-13T10:20:43.418Z,17.95
2022-10-13T10:23:17.147Z,18.95
2022-10-13T10:25:49.191Z,22.60
2022-10-13T10:28:38.406Z,20.42
2022-10-13T10:31:18.404Z,15.50
2022-10-13T10:33:56.630Z,21.38
2022-10-13T10:36:34.439Z,17.42
2022-10-13T10:39:09.313Z,20.25
2022-10-13T10:41:45.911Z,19.15
2022-10-13T10:44:18.493Z,15.63
2022-10-13T10:46:48.789Z,15.60
2022-10-13T10:49:20.887Z,17.75
2022-10-13T10:51:50.953Z,17.20
2022-10-13T10:54:34.906Z,20.13
2022-10-13T10:57:09.632Z,17.80
2022-10-13T10:59:51.219Z,16.35
2022-10-13T11:02:38.224Z,16.27
2022-10-13T11:05:06.713Z,17.98
2022-10-13T11:08:01.287Z,14.40
2022-10-13T11:10:30.486Z,17.92
2022-10-13T11:13:22.346Z,24.23
2022-10-13T11:15:50.396Z,17.42
2022-10-13T11:18:56.598Z,17.73
2022-10-13T11:21:24.266Z,22.25
2022-10-13T11:23:53.349Z,18.48
2022-10-13T11:26:31.196Z,21.50
2022-10-13T11:29:00.380Z,19.45
2022-10-13T11:31:47.698Z,22.30
2022-10-13T11:34:30.888Z,25.17
2022-10-13T11:37:03.332Z,22.35
2022-10-13T11:40:00.776Z,22.70
2022-10-13T11:42:59.292Z,23.15
2022-10-13T11:45:53.797Z,26.73
2022-10-13T11:49:02.834Z,22.48
2022-10-13T11:51:37.950Z,24.35
2022-10-13T11:54:16.639Z,26.05
2022-10-13T11:56:50.284Z,23.02
2022-10-13T11:59:26.520Z,21.95
2022-10-13T12:01:55.550Z,27.17
2022-10-13T12:04:24.554Z,26.15
2022-10-13T12:06:58.171Z,24.15
2022-10-13T12:09:26.055Z,21.30
2022-10-13T12:12:01.346Z,26.00
2022-10-13T12:14:34.149Z,21.38
2022-10-13T12:17:03.311Z,22.58
2022-10-13T12:19:32.668Z,21.48
2022-10-13T12:22:01.848Z,20.13
2022-10-13T12:24:31.314Z,21.70
2022-10-13T12:27:10.466Z,22.48
2022-10-13T12:29:41.487Z,19.85
2022-10-13T12:32:20.094Z,23.70
2022-10-13T12:34:47.701Z,21.33
2022-10-13T12:37:26.021Z,21.42
2022-10-13T12:39:54.223Z,18.10
2022-10-13T12:42:29.229Z,19.70
2022-10-13T12:44:57.751Z,21.13
2022-10-13T12:47:39.688Z,19.25
2022-10-13T12:50:38.620Z,20.30
2022-10-13T12:53:16.251Z,22.98
2022-10-13T12:55:50.257Z,18.92
2022-10-13T12:58:24.141Z,19.95
2022-10-13T13:01:27.981Z,18.25
2022-10-13T13:03:58.369Z,16.83
2022-10-13T13:06:34.737Z,17.80
2022-10-13T13:09:27.369Z,21.27
2022-10-13T13:12:28.757Z,18.67
2022-10-13T13:14:58.168Z,18.48
2022-10-13T13:20:21.749Z,18.42
2022-10-13T13:22:50.692Z,17.98
2022-10-13T13:25:18.334Z,19.42
2022-10-13T13:27:46.119Z,20.95
2022-10-13T13:30:17.208Z,21.92
2022-10-13T13:32:44.893Z,21.88
2022-10-13T13:35:12.634Z,20.00
2022-10-13T13:37:44.409Z,21.88
2022-10-13T13:40:17.429Z,21.15
2022-10-13T13:42:45.304Z,22.58
2022-10-13T13:47:42.161Z,19.95
2022-10-13T13:50:17.033Z,24.25
2022-10-13T13:52:44.714Z,22.65
2022-10-13T13:55:12.363Z,20.52
2022-10-13T13:57:40.013Z,21.90
2022-10-13T14:00:08.750Z,22.13
2022-10-13T14:02:36.415Z,22.50
2022-10-13T14:05:06.008Z,22.73
2022-10-13T14:07:33.650Z,22.98
2022-10-13T14:10:02.324Z,25.83
2022-10-13T14:12:30.647Z,21.35
2022-10-13T14:14:58.620Z,23.90
2022-10-13T14:17:26.359Z,24.60
2022-10-13T14:19:54.050Z,24.02
2022-10-13T14:22:23.731Z,19.88
2022-10-13T14:24:51.555Z,23.05
2022-10-13T14:27:19.244Z,23.25
2022-10-13T14:29:47.136Z,22.25
2022-10-13T14:32:14.973Z,25.88
2022-10-13T14:37:10.012Z,20.27
2022-10-13T14:39:39.157Z,23.70
2022-10-13T14:42:06.797Z,19.85
2022-10-13T14:44:34.445Z,21.35
2022-10-13T14:47:02.092Z,20.45
2022-10-13T14:49:29.726Z,20.27
2022-10-13T14:51:57.371Z,18.25
2022-10-13T14:54:25.602Z,21.90
2022-10-13T14:56:54.793Z,22.40
2022-10-13T14:59:22.519Z,24.00
2022-10-13T15:01:50.704Z,23.88
2022-10-13T15:04:18.313Z,20.20
2022-10-13T15:06:45.961Z,20.67
2022-10-13T15:09:13.601Z,19.95
2022-10-13T15:11:41.267Z,20.25
2022-10-13T15:14:10.747Z,21.10
2022-10-13T15:16:38.494Z,18.52
2022-10-13T15:19:06.446Z,20.80
2022-10-13T15:21:34.116Z,21.60
2022-10-13T15:24:02.400Z,19.50
2022-10-13T15:26:30.038Z,21.27
2022-10-13T15:28:57.707Z,20.02
2022-10-13T15:31:26.773Z,21.58
2022-10-13T15:33:55.306Z,22.17
2022-10-13T15:36:24.316Z,23.10
2022-10-13T15:38:52.676Z,20.52
2022-10-13T15:41:22.908Z,22.92
2022-10-13T15:43:50.642Z,21.92
2022-10-13T15:46:23.905Z,20.80
2022-10-13T15:48:55.220Z,22.67
2022-10-13T15:51:26.723Z,18.38
2022-10-13T15:53:55.143Z,19.63
2022-10-13T15:56:22.828Z,24.50
2022-10-13T15:58:50.476Z,25.38
2022-10-13T16:01:18.161Z,21.05
2022-10-13T16:03:45.860Z,20.35
2022-10-13T16:06:15.278Z,21.17
2022-10-13T16:08:44.429Z,21.00
2022-10-13T16:11:14.170Z,23.25
2022-10-13T16:13:42.977Z,20.83
2022-10-13T16:16:10.580Z,21.67
2022-10-13T16:18:40.187Z,20.75
2022-10-13T16:21:17.296Z,19.38
2022-10-13T16:23:47.844Z,20.23
2022-10-13T16:26:17.325Z,25.55
2022-10-13T16:28:45.149Z,20.40
2022-10-13T16:31:15.129Z,24.67
2022-10-13T16:33:43.933Z,19.35
2022-10-13T16:36:13.850Z,23.33
2022-10-13T16:38:41.705Z,22.08
2022-10-13T16:43:39.982Z,22.95
2022-10-13T16:46:08.265Z,22.42
2022-10-13T16:48:36.414Z,24.88
2022-10-13T16:51:09.676Z,22.20
2022-10-13T16:53:38.551Z,24.58
2022-10-13T16:56:07.573Z,25.90
2022-10-13T16:58:36.861Z,22.05
2022-10-13T17:01:08.595Z,27.55
2022-10-13T17:03:36.403Z,22.13
2022-10-13T17:06:04.296Z,24.98
2022-10-13T17:11:00.504Z,24.00
2022-10-13T17:13:28.213Z,25.52
2022-10-13T17:15:57.747Z,28.77
2022-10-13T17:18:27.673Z,24.98
2022-10-13T17:20:57.291Z,27.15
2022-10-13T17:23:26.025Z,30.45
2022-10-13T17:25:54.569Z,28.50
2022-10-13T17:28:23.412Z,29.45
2022-10-13T17:30:59.572Z,26.13
2022-10-13T17:33:27.426Z,29.10
2022-10-13T17:38:27.057Z,29.30
2022-10-13T17:40:59.504Z,32.72
2022-10-13T17:43:27.639Z,28.83
2022-10-13T17:48:32.690Z,28.88
2022-10-13T17:51:02.862Z,26.60
2022-10-13T17:53:30.521Z,29.70
2022-10-13T17:56:00.911Z,28.60
2022-10-13T17:58:28.740Z,25.85
2022-10-13T18:01:12.458Z,27.80
2022-10-13T18:03:45.669Z,27.38
2022-10-13T18:06:13.582Z,29.25
2022-10-13T18:08:41.340Z,23.52
2022-10-13T18:11:10.394Z,26.38
2022-10-13T18:13:38.844Z,24.42
2022-10-13T18:16:08.647Z,24.35
2022-10-13T18:18:36.682Z,21.45
2022-10-13T18:21:07.345Z,20.60
2022-10-13T18:23:36.470Z,22.30
2022-10-13T18:26:05.882Z,18.48
2022-10-13T18:28:36.072Z,22.75
2022-10-13T18:31:05.582Z,19.40
2022-10-13T18:33:33.611Z,18.65
2022-10-13T18:36:01.516Z,20.83
2022-10-13T18:41:00.529Z,18.25
2022-10-13T18:43:28.160Z,19.65
2022-10-13T18:46:00.610Z,21.52
2022-10-13T18:48:28.592Z,19.27
2022-10-13T18:50:56.209Z,21.50
2022-10-13T18:53:24.169Z,18.23
2022-10-13T18:56:02.194Z,15.98
2022-10-13T18:58:31.113Z,17.27
2022-10-13T19:01:02.452Z,18.33
2022-10-13T19:03:30.491Z,16.70
2022-10-13T19:05:58.101Z,13.07
2022-10-13T19:08:26.088Z,14.55
2022-10-13T19:10:55.112Z,15.50
2022-10-13T19:13:23.041Z,14.13
2022-10-13T19:18:18.112Z,14.32
2022-10-13T19:20:46.105Z,15.57
2022-10-13T19:23:16.734Z,12.98
2022-10-13T19:25:45.322Z,14.25
2022-10-13T19:28:14.450Z,12.85
2022-10-13T19:30:42.221Z,16.30
2022-10-13T19:33:11.892Z,12.30
2022-10-13T19:35:44.094Z,13.18
2022-10-13T19:38:12.573Z,15.23
2022-10-13T19:40:42.472Z,13.93
2022-10-13T19:43:10.721Z,14.45
2022-10-13T19:45:45.049Z,14.10
2022-10-13T19:48:12.714Z,15.35
2022-10-13T19:50:41.622Z,14.82
2022-10-13T19:53:09.310Z,13.60
2022-10-13T19:55:39.339Z,15.65
2022-10-13T19:58:07.249Z,14.80
2022-10-13T20:03:05.585Z,16.40
2022-10-13T20:05:33.329Z,16.27
2022-10-13T20:08:00.935Z,16.70
2022-10-13T20:10:28.583Z,18.23
2022-10-13T20:13:00.242Z,15.02
2022-10-13T20:15:27.893Z,16.50
2022-10-13T20:17:55.479Z,15.32
2022-10-13T20:20:24.491Z,16.58
2022-10-13T20:22:52.102Z,15.43
2022-10-13T20:25:20.473Z,19.25
2022-10-13T20:27:48.360Z,16.60
2022-10-13T20:32:43.596Z,14.85
2022-10-13T20:35:11.341Z,17.38
2022-10-13T20:37:40.375Z,15.45
2022-10-13T20:40:08.869Z,17.60
2022-10-13T20:42:36.510Z,17.00
2022-10-13T20:45:04.364Z,16.05
2022-10-13T20:49:59.498Z,14.88
2022-10-13T20:52:27.105Z,16.63
2022-10-13T20:54:56.097Z,16.35
2022-10-13T20:57:24.670Z,16.40
2022-10-13T20:59:52.324Z,16.70
2022-10-13T21:02:19.913Z,16.90
2022-10-13T21:04:47.569Z,18.00
2022-10-13T21:07:15.222Z,19.70
2022-10-13T21:09:42.892Z,23.55
2022-10-13T21:12:11.883Z,22.95
2022-10-13T21:14:39.605Z,22.30
2022-10-13T21:17:07.839Z,23.80
2022-10-13T21:19:36.496Z,28.98
2022-10-13T21:22:04.129Z,30.40
2022-10-13T21:24:32.079Z,27.20
2022-10-13T21:29:28.610Z,32.83
2022-10-13T21:31:56.269Z,35.25
2022-10-13T21:34:23.914Z,33.45
2022-10-13T21:36:51.606Z,29.40
2022-10-13T21:39:19.216Z,29.15
2022-10-13T21:41:46.909Z,33.10
2022-10-13T21:44:15.003Z,38.13
2022-10-13T21:46:44.001Z,38.13
2022-10-13T21:49:11.666Z,31.60
2022-10-13T21:51:40.829Z,33.10
2022-10-13T21:54:10.677Z,29.10
2022-10-13T21:56:39.729Z,38.60
2022-10-13T21:59:08.113Z,40.35
2022-10-13T22:01:35.869Z,29.67
2022-10-13T22:04:06.210Z,31.98
2022-10-13T22:06:34.430Z,55.10
2022-10-13T22:09:05.865Z,29.65
2022-10-13T22:11:35.869Z,32.35
2022-10-13T22:14:03.608Z,35.00
2022-10-13T22:16:33.647Z,30.55
2022-10-13T22:19:01.386Z,46.35
2022-10-13T22:21:33.568Z,33.75
2022-10-13T22:24:04.417Z,38.85
2022-10-13T22:26:34.165Z,28.20
2022-10-13T22:29:03.315Z,30.33
2022-10-13T22:31:32.660Z,33.17
2022-10-13T22:34:01.012Z,55.75
2022-10-13T22:36:30.781Z,38.33
2022-10-13T22:39:00.314Z,46.10
2022-10-13T22:41:28.598Z,40.42
2022-10-13T22:43:58.081Z,33.70
2022-10-13T22:46:28.277Z,25.92
2022-10-13T22:48:56.289Z,23.42
2022-10-13T22:51:27.264Z,33.45
2022-10-13T22:53:57.298Z,28.98
2022-10-13T22:56:26.710Z,25.38
2022-10-13T22:58:55.622Z,26.98
2022-10-13T23:01:23.646Z,30.05
2022-10-13T23:06:22.039Z,25.63
2022-10-13T23:08:50.479Z,22.65
2022-10-13T23:11:19.989Z,30.23
2022-10-13T23:13:47.670Z,32.83
2022-10-13T23:16:17.961Z,23.95
2022-10-13T23:18:45.695Z,24.63
2022-10-13T23:21:16.802Z,26.23
2022-10-13T23:23:45.172Z,32.67
2022-10-13T23:26:16.301Z,23.33
2022-10-13T23:28:45.694Z,37.13
2022-10-13T23:31:16.424Z,20.02
2022-10-13T23:33:44.866Z,36.03
2022-10-13T23:36:16.927Z,23.05
2022-10-13T23:38:44.602Z,30.10
2022-10-13T23:41:15.303Z,22.35
2022-10-13T23:43:43.394Z,23.67
2022-10-13T23:48:41.167Z,21.38
2022-10-13T23:51:10.789Z,34.08
2022-10-13T23:53:39.477Z,24.58
2022-10-13T23:56:08.325Z,25.05
2022-10-13T23:58:37.145Z,38.28
